createdAt,value
2022-11-14T00:01:10.935Z,9.00
2022-11-14T00:03:37.589Z,9.07
2022-11-14T00:06:08.011Z,9.04
2022-11-14T00:08:35.454Z,9.07
2022-11-14T00:11:02.145Z,8.98
2022-11-14T00:13:28.919Z,9.02
2022-11-14T00:15:55.680Z,8.93
2022-11-14T00:18:22.840Z,8.93
2022-11-14T00:20:50.951Z,8.86
2022-11-14T00:23:18.792Z,8.91
2022-11-14T00:25:46.187Z,8.97
2022-11-14T00:28:13.386Z,8.98
2022-11-14T00:30:40.290Z,8.88
2022-11-14T00:33:07.162Z,8.89
2022-11-14T00:35:33.820Z,8.98
2022-11-14T00:38:00.593Z,8.90
2022-11-14T00:40:27.349Z,8.95
2022-11-14T00:42:54.840Z,8.85
2022-11-14T00:45:21.936Z,8.82
2022-11-14T00:47:48.854Z,8.85
2022-11-14T00:50:16.821Z,8.89
2022-11-14T00:52:43.642Z,8.80
2022-11-14T00:55:10.359Z,8.91
2022-11-14T00:57:37.239Z,8.91
2022-11-14T01:00:05.479Z,8.89
2022-11-14T01:02:32.179Z,8.88
2022-11-14T01:04:59.003Z,8.81
2022-11-14T01:07:25.659Z,8.85
2022-11-14T01:09:52.324Z,8.83
2022-11-14T01:12:19.086Z,8.86
2022-11-14T01:14:45.784Z,8.74
2022-11-14T01:17:12.572Z,8.78
2022-11-14T01:19:39.398Z,8.82
2022-11-14T01:22:06.762Z,8.75
2022-11-14T01:24:34.385Z,8.66
2022-11-14T01:27:01.497Z,8.68
2022-11-14T01:29:30.197Z,8.68
2022-11-14T01:31:56.993Z,8.64
2022-11-14T01:34:24.014Z,8.66
2022-11-14T01:36:50.898Z,8.61
2022-11-14T01:39:17.860Z,8.60
2022-11-14T01:41:44.683Z,8.61
2022-11-14T01:44:17.415Z,8.60
2022-11-14T01:46:48.174Z,8.68
2022-11-14T01:49:22.689Z,8.67
2022-11-14T01:52:12.238Z,8.57
2022-11-14T01:54:43.338Z,8.62
2022-11-14T01:57:12.400Z,8.47
2022-11-14T01:59:42.446Z,8.52
2022-11-14T02:02:15.305Z,8.49
2022-11-14T02:04:46.973Z,8.45
2022-11-14T02:07:14.759Z,8.37
2022-11-14T02:09:45.914Z,8.38
2022-11-14T02:12:15.317Z,8.44
2022-11-14T02:14:45.346Z,8.51
2022-11-14T02:17:30.212Z,8.43
2022-11-14T02:20:10.059Z,8.39
2022-11-14T02:22:38.092Z,8.39
2022-11-14T02:25:05.751Z,8.31
2022-11-14T02:27:33.904Z,8.24
2022-11-14T02:30:13.878Z,8.30
2022-11-14T02:32:57.375Z,8.27
2022-11-14T02:35:27.607Z,8.34
2022-11-14T02:37:54.275Z,8.31
2022-11-14T02:40:21.101Z,8.34
2022-11-14T02:42:47.784Z,8.35
2022-11-14T02:45:14.633Z,8.33
2022-11-14T02:47:41.370Z,8.30
2022-11-14T02:50:08.456Z,8.30
2022-11-14T02:52:35.042Z,8.21
2022-11-14T02:55:01.800Z,8.33
2022-11-14T02:57:28.521Z,8.22
2022-11-14T02:59:55.258Z,8.12
2022-11-14T03:02:22.097Z,8.09
2022-11-14T03:04:48.843Z,8.08
2022-11-14T03:07:15.691Z,8.12
2022-11-14T03:09:42.400Z,8.00
2022-11-14T03:12:09.841Z,8.04
2022-11-14T03:14:39.475Z,7.97
2022-11-14T03:17:06.109Z,8.04
2022-11-14T03:19:32.774Z,8.02
2022-11-14T03:21:59.470Z,8.07
2022-11-14T03:24:26.288Z,7.92
2022-11-14T03:26:53.031Z,7.96
2022-11-14T03:29:19.732Z,7.94
2022-11-14T03:31:46.434Z,7.99
2022-11-14T03:34:13.289Z,7.96
2022-11-14T03:36:39.944Z,7.96
2022-11-14T03:39:06.964Z,7.94
2022-11-14T03:41:33.714Z,7.79
2022-11-14T03:44:00.602Z,7.75
2022-11-14T03:46:27.564Z,7.72
2022-11-14T03:48:54.912Z,7.69
2022-11-14T03:51:21.825Z,7.64
2022-11-14T03:53:48.435Z,7.72
2022-11-14T03:56:15.148Z,7.53
2022-11-14T03:58:41.893Z,7.56
2022-11-14T04:01:08.819Z,7.52
2022-11-14T04:03:35.564Z,7.56
2022-11-14T04:06:03.134Z,7.31
2022-11-14T04:08:30.343Z,7.28
2022-11-14T04:10:57.244Z,7.39
2022-11-14T04:13:23.965Z,7.40
2022-11-14T04:15:58.539Z,7.38
2022-11-14T04:18:26.479Z,7.22
2022-11-14T04:20:53.705Z,7.15
2022-11-14T04:23:20.403Z,7.12
2022-11-14T04:25:47.140Z,7.17
2022-11-14T04:28:14.257Z,7.22
2022-11-14T04:30:41.212Z,7.29
2022-11-14T04:33:08.110Z,7.17
2022-11-14T04:35:34.773Z,7.18
2022-11-14T04:38:01.675Z,7.19
2022-11-14T04:40:28.285Z,7.17
2022-11-14T04:42:55.118Z,7.11
2022-11-14T04:45:21.855Z,7.14
2022-11-14T04:47:48.623Z,7.05
2022-11-14T04:50:15.326Z,7.08
2022-11-14T04:52:42.031Z,7.09
2022-11-14T04:55:09.048Z,7.26
2022-11-14T04:57:35.941Z,7.11
2022-11-14T05:00:04.211Z,7.09
2022-11-14T05:02:32.293Z,7.14
2022-11-14T05:04:59.104Z,6.93
2022-11-14T05:07:25.928Z,6.99
2022-11-14T05:09:52.710Z,6.93
2022-11-14T05:12:19.399Z,7.01
2022-11-14T05:14:46.127Z,7.00
2022-11-14T05:17:12.827Z,7.02
2022-11-14T05:19:39.465Z,7.03
2022-11-14T05:22:06.114Z,7.03
2022-11-14T05:24:32.813Z,7.03
2022-11-14T05:26:59.564Z,6.93
2022-11-14T05:29:26.228Z,6.90
2022-11-14T05:31:52.838Z,7.00
2022-11-14T05:34:19.489Z,7.03
2022-11-14T05:36:46.122Z,7.00
2022-11-14T05:39:12.832Z,7.01
2022-11-14T05:41:39.490Z,7.01
2022-11-14T05:44:06.538Z,6.94
2022-11-14T05:46:33.162Z,7.00
2022-11-14T05:49:00.320Z,7.09
2022-11-14T05:51:27.066Z,6.94
2022-11-14T05:53:54.817Z,7.02
2022-11-14T05:56:21.675Z,6.93
2022-11-14T05:58:48.416Z,6.88
2022-11-14T06:01:17.903Z,6.82
2022-11-14T06:03:46.864Z,6.79
2022-11-14T06:06:20.300Z,6.88
2022-11-14T06:08:47.617Z,6.82
2022-11-14T06:11:17.133Z,6.81
2022-11-14T06:13:44.167Z,6.83
2022-11-14T06:16:13.636Z,6.78
2022-11-14T06:18:40.690Z,6.76
2022-11-14T06:21:12.100Z,6.79
2022-11-14T06:23:39.051Z,6.80
2022-11-14T06:26:08.300Z,6.78
2022-11-14T06:28:35.068Z,6.71
2022-11-14T06:31:04.189Z,6.76
2022-11-14T06:33:35.396Z,6.70
2022-11-14T06:36:04.773Z,6.81
2022-11-14T06:38:33.125Z,6.85
2022-11-14T06:41:04.029Z,6.82
2022-11-14T06:43:36.474Z,6.85
2022-11-14T06:46:04.517Z,6.85
2022-11-14T06:48:31.849Z,6.79
2022-11-14T06:51:00.116Z,6.78
2022-11-14T06:53:29.500Z,6.81
2022-11-14T06:56:05.469Z,6.80
2022-11-14T06:58:34.308Z,6.84
2022-11-14T07:01:11.279Z,6.72
2022-11-14T07:03:38.062Z,6.80
2022-11-14T07:06:06.462Z,6.85
2022-11-14T07:08:33.856Z,6.78
2022-11-14T07:11:05.723Z,6.73
2022-11-14T07:13:33.535Z,6.80
2022-11-14T07:16:00.484Z,6.82
2022-11-14T07:18:31.416Z,6.73
2022-11-14T07:21:00.194Z,6.73
2022-11-14T07:23:27.321Z,6.72
2022-11-14T07:25:54.104Z,6.85
2022-11-14T07:28:20.820Z,6.84
2022-11-14T07:30:47.657Z,6.78
2022-11-14T07:33:14.407Z,6.79
2022-11-14T07:35:42.011Z,6.84
2022-11-14T07:38:08.710Z,6.79
2022-11-14T07:40:35.438Z,6.89
2022-11-14T07:43:02.788Z,7.03
2022-11-14T07:45:30.144Z,6.99
2022-11-14T07:47:59.020Z,7.02
2022-11-14T07:50:26.902Z,7.07
2022-11-14T07:52:55.848Z,7.01
2022-11-14T07:55:22.512Z,7.11
2022-11-14T07:57:53.215Z,7.09
2022-11-14T08:00:19.974Z,7.10
2022-11-14T08:02:47.549Z,7.05
2022-11-14T08:05:14.224Z,7.08
2022-11-14T08:07:41.083Z,7.19
2022-11-14T08:10:08.897Z,7.22
2022-11-14T08:12:35.682Z,7.24
2022-11-14T08:15:02.394Z,7.40
2022-11-14T08:17:29.090Z,7.39
2022-11-14T08:19:55.743Z,7.42
2022-11-14T08:22:22.542Z,7.49
2022-11-14T08:24:49.188Z,7.61
2022-11-14T08:27:16.092Z,7.54
2022-11-14T08:29:42.829Z,7.62
2022-11-14T08:32:10.719Z,7.61
2022-11-14T08:34:37.436Z,7.68
2022-11-14T08:37:04.186Z,7.89
2022-11-14T08:39:30.915Z,7.89
2022-11-14T08:41:57.667Z,8.04
2022-11-14T08:44:24.302Z,8.08
2022-11-14T08:46:51.269Z,8.06
2022-11-14T08:49:17.928Z,8.09
2022-11-14T08:51:44.803Z,8.16
2022-11-14T08:54:11.559Z,8.11
2022-11-14T08:56:38.335Z,8.12
2022-11-14T08:59:05.570Z,8.01
2022-11-14T09:01:32.807Z,8.14
2022-11-14T09:04:00.901Z,8.22
2022-11-14T09:06:28.044Z,8.17
2022-11-14T09:08:55.150Z,8.19
2022-11-14T09:11:21.967Z,8.48
2022-11-14T09:13:48.607Z,8.52
2022-11-14T09:16:15.273Z,8.36
2022-11-14T09:18:42.042Z,8.24
2022-11-14T09:21:09.232Z,8.05
2022-11-14T09:23:36.245Z,8.03
2022-11-14T09:26:07.823Z,8.12
2022-11-14T09:28:35.419Z,8.33
2022-11-14T09:31:10.182Z,8.35
2022-11-14T09:33:37.137Z,8.45
2022-11-14T09:36:07.027Z,8.34
2022-11-14T09:38:38.465Z,8.44
2022-11-14T09:41:05.621Z,8.41
2022-11-14T09:43:44.518Z,8.28
2022-11-14T09:46:27.477Z,8.43
2022-11-14T09:48:54.342Z,8.46
2022-11-14T09:51:32.700Z,8.61
2022-11-14T09:54:11.857Z,8.55
2022-11-14T09:56:38.679Z,8.50
2022-11-14T09:59:11.069Z,8.57
2022-11-14T10:02:07.311Z,8.63
2022-11-14T10:04:40.084Z,8.61
2022-11-14T10:07:31.893Z,8.76
2022-11-14T10:10:13.694Z,8.83
2022-11-14T10:13:07.208Z,8.91
2022-11-14T10:15:43.103Z,8.97
2022-11-14T10:18:43.892Z,8.98
2022-11-14T10:21:20.326Z,8.92
2022-11-14T10:23:56.120Z,9.25
2022-11-14T10:26:28.289Z,9.40
2022-11-14T10:29:19.989Z,9.18
2022-11-14T10:32:14.840Z,9.16
2022-11-14T10:35:02.424Z,9.20
2022-11-14T10:37:41.940Z,9.36
2022-11-14T10:40:22.496Z,9.56
2022-11-14T10:42:54.492Z,9.39
2022-11-14T10:45:29.402Z,9.39
2022-11-14T10:48:00.216Z,9.50
2022-11-14T10:50:49.967Z,9.34
2022-11-14T10:53:41.583Z,9.14
2022-11-14T10:56:11.784Z,9.18
2022-11-14T10:58:48.328Z,9.42
2022-11-14T11:01:34.842Z,10.07
2022-11-14T11:04:13.645Z,11.13
2022-11-14T11:06:40.684Z,11.10
2022-11-14T11:09:27.976Z,11.20
2022-11-14T11:11:58.663Z,11.09
2022-11-14T11:14:25.794Z,11.13
2022-11-14T11:17:10.909Z,11.67
2022-11-14T11:19:39.166Z,11.51
2022-11-14T11:22:25.398Z,11.94
2022-11-14T11:24:52.058Z,11.77
2022-11-14T11:27:28.495Z,11.70
2022-11-14T11:30:15.822Z,12.17
2022-11-14T11:32:42.611Z,12.07
2022-11-14T11:35:14.818Z,11.59
2022-11-14T11:38:00.100Z,12.10
2022-11-14T11:40:28.971Z,11.91
2022-11-14T11:43:38.337Z,12.13
2022-11-14T11:45:54.761Z,11.54
2022-11-14T11:48:23.296Z,11.40
2022-11-14T11:50:50.447Z,11.46
2022-11-14T11:53:23.347Z,11.26
2022-11-14T11:55:54.777Z,10.96
2022-11-14T11:58:26.449Z,11.15
2022-11-14T12:00:55.572Z,10.97
2022-11-14T12:03:25.422Z,11.17
2022-11-14T12:06:14.264Z,10.87
2022-11-14T12:08:49.900Z,11.11
2022-11-14T12:11:23.983Z,11.22
2022-11-14T12:13:56.627Z,11.12
2022-11-14T12:16:45.252Z,11.02
2022-11-14T12:19:41.606Z,11.13
2022-11-14T12:22:24.555Z,10.97
2022-11-14T12:24:51.181Z,10.90
2022-11-14T12:27:42.402Z,10.79
2022-11-14T12:30:24.161Z,10.71
2022-11-14T12:32:57.441Z,10.75
2022-11-14T12:35:30.675Z,10.86
2022-11-14T12:37:59.697Z,10.93
2022-11-14T12:40:33.361Z,10.77
2022-11-14T12:43:01.949Z,10.85
2022-11-14T12:45:41.123Z,10.79
2022-11-14T12:48:28.920Z,10.77
2022-11-14T12:50:57.497Z,10.70
2022-11-14T12:53:35.730Z,10.79
2022-11-14T12:56:17.629Z,10.88
2022-11-14T12:59:06.013Z,10.70
2022-11-14T13:01:54.523Z,10.79
2022-11-14T13:04:43.000Z,10.79
2022-11-14T13:07:46.854Z,10.82
2022-11-14T13:10:27.831Z,10.84
2022-11-14T13:13:26.457Z,10.84
2022-11-14T13:16:16.731Z,10.84
2022-11-14T13:19:10.142Z,10.92
2022-11-14T13:21:59.611Z,10.55
2022-11-14T13:24:26.313Z,10.68
2022-11-14T13:26:55.008Z,10.62
2022-11-14T13:29:40.106Z,10.75
2022-11-14T13:32:11.244Z,10.75
2022-11-14T13:34:51.177Z,10.77
2022-11-14T13:37:53.127Z,10.98
2022-11-14T13:40:34.666Z,10.74
2022-11-14T13:43:16.829Z,10.71
2022-11-14T13:46:15.864Z,10.69
2022-11-14T13:48:59.185Z,10.67
2022-11-14T13:51:42.881Z,10.56
2022-11-14T13:54:17.622Z,10.53
2022-11-14T13:56:45.159Z,10.37
2022-11-14T13:59:30.774Z,10.08
2022-11-14T14:02:32.108Z,9.95
2022-11-14T14:05:21.662Z,9.84
2022-11-14T14:08:17.023Z,9.78
2022-11-14T14:11:11.709Z,9.60
2022-11-14T14:14:06.588Z,9.51
2022-11-14T14:16:55.983Z,9.44
2022-11-14T14:19:52.031Z,9.53
2022-11-14T14:22:37.523Z,9.47
2022-11-14T14:25:22.268Z,9.36
2022-11-14T14:28:08.206Z,9.21
2022-11-14T14:30:35.101Z,9.29
2022-11-14T14:33:07.954Z,9.03
2022-11-14T14:35:40.405Z,8.91
2022-11-14T14:38:22.510Z,8.82
2022-11-14T14:40:49.278Z,8.82
2022-11-14T14:43:25.554Z,8.79
2022-11-14T14:45:54.183Z,8.65
2022-11-14T14:48:28.894Z,8.68
2022-11-14T14:50:58.097Z,8.67
2022-11-14T14:53:27.580Z,8.60
2022-11-14T14:55:58.146Z,8.49
2022-11-14T14:58:33.790Z,8.48
2022-11-14T15:01:11.912Z,8.44
2022-11-14T15:04:09.215Z,8.36
2022-11-14T15:06:39.748Z,8.37
2022-11-14T15:09:11.083Z,8.29
2022-11-14T15:11:47.560Z,8.18
2022-11-14T15:14:19.306Z,8.17
2022-11-14T15:16:50.135Z,8.04
2022-11-14T15:19:20.683Z,8.05
2022-11-14T15:22:02.828Z,8.03
2022-11-14T15:24:30.623Z,7.91
2022-11-14T15:26:58.070Z,7.87
2022-11-14T15:29:27.286Z,7.91
2022-11-14T15:32:04.917Z,7.83
2022-11-14T15:34:37.466Z,7.84
2022-11-14T15:37:23.074Z,7.82
2022-11-14T15:39:50.263Z,7.78
2022-11-14T15:42:26.447Z,7.68
2022-11-14T15:44:53.182Z,7.64
2022-11-14T15:47:28.838Z,7.59
2022-11-14T15:50:22.490Z,7.63
2022-11-14T15:52:59.186Z,7.57
2022-11-14T15:55:26.063Z,7.53
2022-11-14T15:58:20.971Z,7.52
2022-11-14T16:00:47.314Z,7.48
2022-11-14T16:03:19.368Z,7.37
2022-11-14T16:05:46.330Z,7.41
2022-11-14T16:08:13.195Z,7.23
2022-11-14T16:10:40.087Z,7.23
2022-11-14T16:13:07.070Z,7.26
2022-11-14T16:15:33.725Z,7.24
2022-11-14T16:18:00.449Z,7.26
2022-11-14T16:20:29.357Z,7.24
2022-11-14T16:22:56.658Z,7.16
2022-11-14T16:25:25.193Z,7.12
2022-11-14T16:27:52.215Z,7.14
2022-11-14T16:30:20.944Z,7.09
2022-11-14T16:32:49.024Z,7.11
2022-11-14T16:35:18.379Z,7.17
2022-11-14T16:37:45.223Z,7.07
2022-11-14T16:40:21.583Z,7.05
2022-11-14T16:42:48.932Z,7.04
2022-11-14T16:45:20.555Z,6.98
2022-11-14T16:47:48.283Z,6.95
2022-11-14T16:50:15.123Z,6.95
2022-11-14T16:52:41.929Z,6.96
2022-11-14T16:55:10.421Z,6.90
2022-11-14T16:57:37.757Z,6.90
2022-11-14T17:00:10.679Z,6.97
2022-11-14T17:02:37.455Z,6.93
2022-11-14T17:05:04.645Z,6.93
2022-11-14T17:07:33.315Z,6.89
2022-11-14T17:10:00.502Z,6.82
2022-11-14T17:12:28.115Z,6.81
2022-11-14T17:14:54.803Z,6.81
2022-11-14T17:17:21.697Z,6.79
2022-11-14T17:19:48.621Z,6.78
2022-11-14T17:22:17.278Z,6.79
2022-11-14T17:24:44.451Z,6.76
2022-11-14T17:27:13.043Z,6.70
2022-11-14T17:29:39.944Z,6.72
2022-11-14T17:32:06.955Z,6.69
2022-11-14T17:34:33.704Z,6.67
2022-11-14T17:37:00.393Z,6.66
2022-11-14T17:39:27.207Z,6.61
2022-11-14T17:41:54.194Z,6.65
2022-11-14T17:44:21.139Z,6.63
2022-11-14T17:46:48.215Z,6.63
2022-11-14T17:49:14.897Z,6.69
2022-11-14T17:51:41.830Z,6.59
2022-11-14T17:54:09.003Z,6.56
2022-11-14T17:56:35.752Z,6.54
2022-11-14T17:59:03.187Z,6.50
2022-11-14T18:01:31.428Z,6.40
2022-11-14T18:04:01.747Z,6.43
2022-11-14T18:06:33.670Z,6.43
2022-11-14T18:09:04.932Z,6.41
2022-11-14T18:11:32.370Z,6.39
2022-11-14T18:13:59.138Z,6.44
2022-11-14T18:16:31.375Z,6.37
2022-11-14T18:19:06.470Z,6.40
2022-11-14T18:21:33.209Z,6.33
2022-11-14T18:24:00.460Z,6.34
2022-11-14T18:26:28.797Z,6.28
2022-11-14T18:29:00.801Z,6.22
2022-11-14T18:31:28.047Z,6.26
2022-11-14T18:33:55.127Z,6.25
2022-11-14T18:36:22.049Z,6.17
2022-11-14T18:38:48.913Z,6.16
2022-11-14T18:41:18.487Z,6.15
2022-11-14T18:43:46.726Z,6.17
2022-11-14T18:46:17.899Z,6.10
2022-11-14T18:48:46.997Z,6.02
2022-11-14T18:51:16.754Z,5.95
2022-11-14T18:53:43.447Z,5.99
2022-11-14T18:56:15.614Z,5.99
2022-11-14T18:58:43.175Z,6.00
2022-11-14T19:01:15.823Z,5.99
2022-11-14T19:03:42.894Z,5.90
2022-11-14T19:06:12.101Z,5.90
2022-11-14T19:08:39.681Z,5.90
2022-11-14T19:11:29.662Z,5.89
2022-11-14T19:14:04.913Z,5.82
2022-11-14T19:16:33.449Z,5.83
2022-11-14T19:19:00.525Z,5.80
2022-11-14T19:21:28.102Z,5.79
2022-11-14T19:23:54.917Z,5.71
2022-11-14T19:26:23.088Z,5.72
2022-11-14T19:28:49.876Z,5.74
2022-11-14T19:31:17.742Z,5.70
2022-11-14T19:33:47.819Z,6.09
2022-11-14T19:36:27.833Z,5.84
2022-11-14T19:39:04.025Z,5.71
2022-11-14T19:41:32.235Z,5.67
2022-11-14T19:44:00.096Z,5.61
2022-11-14T19:46:28.951Z,5.62
2022-11-14T19:49:00.619Z,5.64
2022-11-14T19:51:28.841Z,5.65
2022-11-14T19:53:59.189Z,5.54
2022-11-14T19:56:27.024Z,5.62
2022-11-14T19:58:56.214Z,5.53
2022-11-14T20:01:25.376Z,5.59
2022-11-14T20:03:55.055Z,5.56
2022-11-14T20:06:23.446Z,5.49
2022-11-14T20:08:51.172Z,5.53
2022-11-14T20:11:18.961Z,5.53
2022-11-14T20:13:46.301Z,5.49
2022-11-14T20:16:17.964Z,5.51
2022-11-14T20:18:46.243Z,5.50
2022-11-14T20:21:15.320Z,5.41
2022-11-14T20:23:42.370Z,5.27
2022-11-14T20:26:11.505Z,5.31
2022-11-14T20:28:39.472Z,5.33
2022-11-14T20:31:09.921Z,5.33
2022-11-14T20:33:38.475Z,5.33
2022-11-14T20:37:19.699Z,5.30
2022-11-14T20:59:55.102Z,5.18
2022-11-14T21:02:21.968Z,5.08
2022-11-14T21:04:48.788Z,5.07
2022-11-14T21:07:15.494Z,5.09
2022-11-14T21:09:42.167Z,5.09
2022-11-14T21:12:08.855Z,5.00
2022-11-14T21:14:35.576Z,4.95
2022-11-14T21:17:02.284Z,4.95
2022-11-14T21:19:31.702Z,4.96
2022-11-14T21:21:58.290Z,4.95
2022-11-14T21:24:24.967Z,4.90
2022-11-14T21:26:51.705Z,4.89
2022-11-14T21:29:18.351Z,4.88
2022-11-14T21:31:45.967Z,4.81
2022-11-14T21:34:15.423Z,4.84
2022-11-14T21:36:46.679Z,4.81
2022-11-14T21:39:15.524Z,4.83
2022-11-14T21:41:43.301Z,4.80
2022-11-14T21:44:13.164Z,4.80
2022-11-14T21:46:40.368Z,4.80
2022-11-14T21:49:07.085Z,4.77
2022-11-14T21:51:33.768Z,4.81
2022-11-14T21:54:02.819Z,4.80
2022-11-14T21:56:31.825Z,4.81
2022-11-14T21:59:15.860Z,4.83
2022-11-14T22:02:05.117Z,4.79
2022-11-14T22:04:32.303Z,4.77
2022-11-14T22:07:01.365Z,4.81
2022-11-14T22:09:28.808Z,4.87
2022-11-14T22:11:56.333Z,4.79
2022-11-14T22:14:23.387Z,4.83
2022-11-14T22:16:50.518Z,4.81
2022-11-14T22:19:18.693Z,4.76
2022-11-14T22:21:45.638Z,4.71
2022-11-14T22:24:12.344Z,4.69
2022-11-14T22:26:40.391Z,4.69
2022-11-14T22:29:08.564Z,4.74
2022-11-14T22:31:35.578Z,4.71
2022-11-14T22:34:02.310Z,4.75
2022-11-14T22:36:29.167Z,4.72
2022-11-14T22:38:57.276Z,4.68
2022-11-14T22:41:32.775Z,4.69
2022-11-14T22:44:01.956Z,4.72
2022-11-14T22:46:29.182Z,4.67
2022-11-14T22:48:56.345Z,4.64
2022-11-14T22:51:25.289Z,4.72
2022-11-14T22:53:57.166Z,4.76
2022-11-14T22:56:26.630Z,4.68
2022-11-14T22:58:53.691Z,4.71
2022-11-14T23:01:31.320Z,4.69
2022-11-14T23:04:03.847Z,4.67
2022-11-14T23:06:33.511Z,4.73
2022-11-14T23:09:01.630Z,4.66
2022-11-14T23:11:30.975Z,4.64
2022-11-14T23:13:59.711Z,4.66
2022-11-14T23:16:29.239Z,4.74
2022-11-14T23:18:57.978Z,4.68
2022-11-14T23:21:28.239Z,4.69
2022-11-14T23:23:57.093Z,4.74
2022-11-14T23:26:25.202Z,4.75
2022-11-14T23:28:52.404Z,4.78
2022-11-14T23:31:19.562Z,4.74
2022-11-14T23:33:47.870Z,4.73
2022-11-14T23:36:15.223Z,4.81
2022-11-14T23:38:42.575Z,4.78
2022-11-14T23:41:16.234Z,4.82
2022-11-14T23:43:43.066Z,4.88
2022-11-14T23:46:10.003Z,4.84
2022-11-14T23:48:36.745Z,4.94
2022-11-14T23:51:03.982Z,4.97
2022-11-14T23:53:31.018Z,4.93
2022-11-14T23:56:00.034Z,5.04
2022-11-14T23:58:28.772Z,5.06
